Tropical Cyclones
[Index]
Main Index Home Page Stock Weather Photos Extreme Storms Discussion Storm News and Storm Chasing Reports Tropical Cyclones / Hurricanes / Typhoons Weather Data and Links Wild Fires / Bushfires Weather Observation Techniques Weather Picture Catalogue Tornado Pictures and Reports Stock Video Footage and DVDs for sale
Season 1945-1946 Tropical Cyclone 194618 Track Map
Season 1945-1946 Summaries: [BoM-AU] [JTWC-AU] [JTWC-SIO] [JTWC-SPAC] [JTWC-SH]
<<- Previous TC | JTWC 1945-1946 Season | Next TC ->>

click for intensity scale information  Lat/long Grid: Show Hide

 Date Labels: Show Hide

Joint Typhoon Warning Centre Cyclone Data

Name: 194618
Number: 31 / 4618

17 Mar 1946 00:00 UTC to 25 Mar 1946 00:00 UTC

    date/time    lat    long     hPa   cat  kts
1946-03-17 00   13.4   167.0                              
1946-03-17 06   13.8   166.1                              
1946-03-17 12   14.2   165.4                              
1946-03-17 18   14.4   164.9                              
1946-03-18 00   14.7   164.4                              
1946-03-18 06   15.0   163.7                              
1946-03-18 12   15.3   163.0                              
1946-03-18 18   15.6   162.5                              
1946-03-19 00   16.0   162.0                              
1946-03-19 06   16.3   161.4                              
1946-03-19 12   16.7   160.9                              
1946-03-19 18   17.1   160.4                              
1946-03-20 00   17.5   160.0                              
1946-03-20 06   17.8   159.6                              
1946-03-20 12   18.2   159.2                              
1946-03-20 18   18.6   158.8                              
1946-03-21 00   19.0   158.4                              
1946-03-21 06   19.4   157.9                              
1946-03-21 12   19.9   157.3                              
1946-03-21 18   20.3   156.9                              
1946-03-22 00   20.7   156.6                              
1946-03-22 06   21.1   156.2                              
1946-03-22 12   21.6   155.8                              
1946-03-22 18   22.0   155.5                              
1946-03-23 00   22.4   155.3                              
1946-03-23 06   22.9   154.9                              
1946-03-23 12   23.5   154.6                              
1946-03-23 18   23.9   154.3                              
1946-03-24 00   24.3   154.0                              
1946-03-24 06   25.0   153.7                              
1946-03-24 12   25.7   153.3                              
1946-03-24 18   26.4   153.0                              
1946-03-25 00   27.0   152.8                              
Winds are 1-min average.

Tropical cyclone tracks developed by Michael Bath using data from the Joint Typhoon Warning Centre Best Tracks and Google Maps.


[Australian Severe Weather index] [Copyright Notice] [Email Contacts] [Search This Site] [Privacy Policy]
Document: tropical_cyclone_194618.htm Updated: 18 September 2016